KABI/ABI METAR and TAF weather

Enter ICAO airport designator
Station Type Date Time Source
KABI METAR 2020/01/23 17:52 UTC NOAA

KABI 231752Z 36012KT 10SM CLR 12/04 A3011 RMK AO2 SLP191 T01170044 10117 20028 50008


Station Type Date Time Source
KABI Decoded METAR 2020/01/23 17:52 UTC NOAA

ABILENE REGIONAL AIRPORT, TX, United States (KABI) 32-25N 099-41W 548M
Jan 23, 2020 - 12:52 PM EST / 2020.01.23 1752 UTC
Wind: from the N (360 degrees) at 14 MPH (12 KT):0
Visibility: 10 mile(s):0
Sky conditions: clear
Temperature: 53.1 F (11.7 C)
Dew Point: 39.9 F (4.4 C)
Relative Humidity: 60%
Pressure (altimeter): 30.11 in. Hg (1019 hPa)
Pressure tendency: 0.02 inches (0.8 hPa) higher than three hours ago
ob: KABI 231752Z 36012KT 10SM CLR 12/04 A3011 RMK AO2 SLP191 T01170044 10117 20028 50008
cycle: 18

Station Type Date Time Source
KABI TAF 2020/01/23 18:22 UTC NOAA

TAF KABI 231720Z 2318/2418 36011KT P6SM SCT250
FM240100 00000KT P6SM FEW250

Example: see airport list